createdAt,value
2018-11-23T00:00:06.238Z,3.22
2018-11-23T00:01:06.216Z,3.29
2018-11-23T00:02:06.187Z,3.41
2018-11-23T00:03:06.165Z,3.30
2018-11-23T00:04:06.133Z,3.27
2018-11-23T00:05:06.104Z,3.19
2018-11-23T00:06:06.078Z,3.18
2018-11-23T00:07:06.051Z,3.30
2018-11-23T00:08:06.035Z,3.41
2018-11-23T00:09:05.995Z,3.21
2018-11-23T00:10:05.974Z,3.19
2018-11-23T00:11:05.946Z,3.26
2018-11-23T00:12:05.927Z,3.26
2018-11-23T00:13:05.899Z,3.24
2018-11-23T00:14:05.875Z,3.18
2018-11-23T00:15:05.848Z,3.18
2018-11-23T00:16:05.814Z,3.21
2018-11-23T00:17:05.789Z,3.12
2018-11-23T00:18:05.758Z,3.09
2018-11-23T00:19:05.736Z,3.13
2018-11-23T00:20:05.709Z,3.21
2018-11-23T00:21:05.685Z,3.16
2018-11-23T00:22:05.673Z,3.27
2018-11-23T00:23:05.631Z,3.24
2018-11-23T00:24:05.606Z,3.26
2018-11-23T00:25:05.594Z,3.30
2018-11-23T00:26:05.558Z,3.24
2018-11-23T00:27:05.523Z,3.30
2018-11-23T00:28:05.509Z,3.27
2018-11-23T00:29:05.469Z,3.18
2018-11-23T00:30:05.454Z,3.19
2018-11-23T00:31:05.418Z,3.19
2018-11-23T00:32:05.400Z,3.22
2018-11-23T00:33:05.367Z,3.12
2018-11-23T00:34:05.339Z,3.13
2018-11-23T00:35:05.313Z,3.08
2018-11-23T00:36:05.295Z,3.06
2018-11-23T00:37:05.258Z,3.00
2018-11-23T00:38:05.244Z,3.00
2018-11-23T00:39:05.212Z,2.95
2018-11-23T00:40:05.198Z,2.94
2018-11-23T00:41:05.151Z,2.94
2018-11-23T00:42:05.125Z,2.94
2018-11-23T00:43:05.100Z,2.93
2018-11-23T00:44:05.072Z,2.95
2018-11-23T00:45:05.048Z,3.00
2018-11-23T00:46:05.023Z,3.01
2018-11-23T00:47:04.991Z,2.98
2018-11-23T00:48:04.968Z,2.93
2018-11-23T00:49:05.097Z,2.97
2018-11-23T00:50:04.913Z,3.00
2018-11-23T00:51:04.891Z,3.06
2018-11-23T00:52:04.861Z,3.05
2018-11-23T00:53:04.832Z,3.01
2018-11-23T00:54:04.811Z,3.06
2018-11-23T00:55:04.791Z,3.12
2018-11-23T00:56:04.748Z,3.24
2018-11-23T00:57:04.728Z,3.26
2018-11-23T00:58:04.703Z,3.24
2018-11-23T00:59:04.680Z,3.34
2018-11-23T01:00:04.646Z,3.37
2018-11-23T01:01:04.619Z,3.33
2018-11-23T01:02:04.594Z,3.34
2018-11-23T01:03:04.567Z,3.31
2018-11-23T01:04:04.532Z,3.36
2018-11-23T01:05:04.521Z,3.33
2018-11-23T01:06:04.490Z,3.41
2018-11-23T01:07:04.462Z,3.30
2018-11-23T01:08:04.436Z,3.26
2018-11-23T01:09:04.410Z,3.30
2018-11-23T01:10:04.376Z,3.45
2018-11-23T01:11:04.353Z,3.37
2018-11-23T01:12:04.335Z,3.37
2018-11-23T01:13:04.304Z,3.37
2018-11-23T01:14:04.278Z,3.37
2018-11-23T01:15:04.249Z,3.36
2018-11-23T01:16:04.221Z,3.34
2018-11-23T01:17:04.192Z,3.43
2018-11-23T01:18:04.172Z,3.37
2018-11-23T01:19:04.139Z,3.40
2018-11-23T01:20:04.126Z,3.53
2018-11-23T01:21:04.096Z,3.40
2018-11-23T01:22:04.066Z,3.45
2018-11-23T01:23:04.039Z,3.48
2018-11-23T01:24:04.011Z,3.37
2018-11-23T01:25:03.984Z,3.48
2018-11-23T01:26:03.959Z,3.50
2018-11-23T01:27:03.929Z,3.43
2018-11-23T01:28:03.914Z,3.53
2018-11-23T01:29:03.890Z,3.48
2018-11-23T01:30:03.851Z,3.45
2018-11-23T01:31:03.831Z,3.49
2018-11-23T01:32:03.809Z,3.49
2018-11-23T01:33:03.775Z,3.52
2018-11-23T01:34:03.745Z,3.52
2018-11-23T01:35:03.720Z,3.59
2018-11-23T01:36:03.708Z,3.53
2018-11-23T01:37:03.674Z,3.55
2018-11-23T01:38:03.656Z,3.64
2018-11-23T01:39:03.617Z,3.68
2018-11-23T01:40:03.589Z,3.74
2018-11-23T01:41:03.561Z,3.74
2018-11-23T01:42:03.539Z,3.73
2018-11-23T01:43:03.515Z,3.68
2018-11-23T01:44:03.482Z,3.68
2018-11-23T01:45:03.458Z,3.63
2018-11-23T01:46:03.431Z,3.63
2018-11-23T01:47:03.404Z,3.63
2018-11-23T01:48:03.428Z,3.64
2018-11-23T01:49:03.353Z,3.58
2018-11-23T01:50:03.329Z,3.68
2018-11-23T01:51:03.303Z,3.61
2018-11-23T01:52:03.278Z,3.61
2018-11-23T01:53:03.247Z,3.63
2018-11-23T01:54:03.222Z,3.52
2018-11-23T01:55:03.195Z,3.63
2018-11-23T01:56:03.171Z,3.63
2018-11-23T01:57:03.144Z,3.55
2018-11-23T01:58:03.118Z,3.63
2018-11-23T01:59:03.091Z,3.66
2018-11-23T02:00:03.063Z,3.66
2018-11-23T02:01:03.039Z,3.64
2018-11-23T02:02:03.013Z,3.76
2018-11-23T02:03:02.987Z,3.71
2018-11-23T02:04:02.963Z,3.70
2018-11-23T02:05:02.936Z,3.71
2018-11-23T02:06:02.910Z,3.50
2018-11-23T02:07:02.907Z,3.59
2018-11-23T02:08:02.857Z,3.53
2018-11-23T02:09:02.829Z,3.59
2018-11-23T02:10:02.805Z,3.58
2018-11-23T02:11:02.780Z,3.66
2018-11-23T02:12:02.750Z,3.66
2018-11-23T02:13:02.725Z,3.66
2018-11-23T02:14:02.701Z,3.67
2018-11-23T02:15:02.677Z,3.64
2018-11-23T02:16:02.647Z,3.50
2018-11-23T02:17:02.623Z,3.58
2018-11-23T02:18:02.595Z,3.61
2018-11-23T02:19:02.568Z,3.66
2018-11-23T02:20:02.550Z,3.66
2018-11-23T02:21:02.515Z,3.70
2018-11-23T02:22:02.489Z,3.70
2018-11-23T02:23:02.463Z,3.74
2018-11-23T02:24:02.439Z,3.68
2018-11-23T02:25:02.412Z,3.66
2018-11-23T02:26:02.395Z,3.59
2018-11-23T02:27:02.366Z,3.70
2018-11-23T02:28:02.341Z,3.64
2018-11-23T02:29:02.307Z,3.53
2018-11-23T02:30:02.281Z,3.52
2018-11-23T02:31:02.257Z,3.37
2018-11-23T02:32:02.230Z,3.41
2018-11-23T02:33:02.211Z,3.41
2018-11-23T02:34:02.176Z,3.37
2018-11-23T02:35:02.160Z,3.36
2018-11-23T02:36:02.126Z,3.34
2018-11-23T02:37:02.097Z,3.34
2018-11-23T02:38:02.074Z,3.26
2018-11-23T02:39:02.049Z,3.16
2018-11-23T02:40:02.020Z,3.15
2018-11-23T02:41:01.991Z,3.15
2018-11-23T02:42:01.969Z,3.16
2018-11-23T02:43:01.942Z,3.22
2018-11-23T02:44:01.918Z,3.16
2018-11-23T02:45:01.890Z,3.18
2018-11-23T02:46:01.861Z,3.16
2018-11-23T02:47:01.835Z,3.18
2018-11-23T02:48:01.811Z,3.16
2018-11-23T02:49:01.781Z,3.11
2018-11-23T02:50:01.755Z,3.08
2018-11-23T02:51:01.729Z,3.11
2018-11-23T02:52:01.702Z,3.06
2018-11-23T02:53:01.676Z,3.09
2018-11-23T02:54:01.647Z,3.09
2018-11-23T02:55:01.623Z,3.00
2018-11-23T02:56:01.606Z,3.00
2018-11-23T02:57:01.571Z,2.97
2018-11-23T02:58:01.543Z,2.97
2018-11-23T02:59:01.517Z,2.94
2018-11-23T03:00:01.493Z,2.98
2018-11-23T03:01:01.468Z,3.00
2018-11-23T03:02:01.439Z,3.05
2018-11-23T03:03:01.452Z,2.97
2018-11-23T03:04:01.403Z,2.97
2018-11-23T03:05:01.364Z,3.03
2018-11-23T03:06:01.349Z,2.98
2018-11-23T03:07:01.305Z,2.93
2018-11-23T03:08:01.280Z,2.97
2018-11-23T03:09:01.249Z,2.93
2018-11-23T03:10:01.224Z,2.83
2018-11-23T03:11:01.199Z,3.03
2018-11-23T03:12:01.194Z,2.97
2018-11-23T03:13:01.144Z,2.95
2018-11-23T03:14:01.131Z,2.88
2018-11-23T03:15:01.094Z,2.83
2018-11-23T03:16:01.065Z,2.82
2018-11-23T03:17:01.036Z,2.83
2018-11-23T03:18:01.009Z,2.75
2018-11-23T03:19:00.985Z,2.76
2018-11-23T03:20:00.962Z,2.73
2018-11-23T03:21:00.931Z,2.77
2018-11-23T03:22:00.902Z,2.73
2018-11-23T03:23:00.877Z,2.68
2018-11-23T03:24:00.853Z,2.76
2018-11-23T03:25:00.832Z,2.72
2018-11-23T03:26:00.797Z,2.72
2018-11-23T03:27:00.769Z,2.70
2018-11-23T03:28:00.896Z,2.55
2018-11-23T03:29:00.716Z,2.58
2018-11-23T03:30:00.697Z,2.57
2018-11-23T03:31:00.718Z,2.54
2018-11-23T03:32:00.646Z,2.61
2018-11-23T03:33:00.608Z,2.58
2018-11-23T03:34:00.586Z,2.57
2018-11-23T03:35:00.554Z,2.62
2018-11-23T03:36:00.527Z,2.62
2018-11-23T03:37:00.502Z,2.54
2018-11-23T03:38:00.472Z,2.55
2018-11-23T03:39:00.453Z,2.57
2018-11-23T03:40:00.421Z,2.52
2018-11-23T03:41:00.404Z,2.57
2018-11-23T03:42:00.364Z,2.54
2018-11-23T03:43:00.338Z,2.52
2018-11-23T03:44:00.310Z,2.46
2018-11-23T03:45:00.283Z,2.55
2018-11-23T03:46:00.256Z,2.57
2018-11-23T03:47:00.231Z,2.58
2018-11-23T03:48:00.203Z,2.57
2018-11-23T03:49:00.176Z,2.50
2018-11-23T03:50:00.153Z,2.46
2018-11-23T03:51:00.122Z,2.50
2018-11-23T03:52:00.096Z,2.52
2018-11-23T03:53:00.533Z,2.51
2018-11-23T03:54:00.043Z,2.51
2018-11-23T03:55:00.019Z,2.41
2018-11-23T03:55:59.988Z,2.34
2018-11-23T03:56:59.960Z,2.44
2018-11-23T03:57:59.934Z,2.40
2018-11-23T03:58:59.906Z,2.40
2018-11-23T03:59:59.879Z,2.39
2018-11-23T04:00:59.852Z,2.34
2018-11-23T04:01:59.825Z,2.39
2018-11-23T04:02:59.810Z,2.34
2018-11-23T04:03:59.771Z,2.46
2018-11-23T04:04:59.752Z,2.55
2018-11-23T04:05:59.717Z,2.57
2018-11-23T04:06:59.695Z,2.52
2018-11-23T04:07:59.663Z,2.59
2018-11-23T04:08:59.639Z,2.52
2018-11-23T04:09:59.609Z,2.46
2018-11-23T04:10:59.592Z,2.41
2018-11-23T04:11:59.572Z,2.52
2018-11-23T04:12:59.529Z,2.54
2018-11-23T04:13:59.506Z,2.51
2018-11-23T04:14:59.497Z,2.47
2018-11-23T04:15:59.458Z,2.37
2018-11-23T04:16:59.428Z,2.37
2018-11-23T04:17:59.395Z,2.39
2018-11-23T04:18:59.375Z,2.39
2018-11-23T04:19:59.339Z,2.47
2018-11-23T04:20:59.313Z,2.43
2018-11-23T04:21:59.290Z,2.46
2018-11-23T04:22:59.267Z,2.41
2018-11-23T04:23:59.232Z,2.37
2018-11-23T04:24:59.206Z,2.41
2018-11-23T04:25:59.177Z,2.39
2018-11-23T04:26:59.150Z,2.44
2018-11-23T04:27:59.132Z,2.37
2018-11-23T04:28:59.095Z,2.40
2018-11-23T04:29:59.076Z,2.43
2018-11-23T04:30:59.041Z,2.40
2018-11-23T04:31:59.014Z,2.37
2018-11-23T04:32:58.988Z,2.36
2018-11-23T04:33:58.968Z,2.37
2018-11-23T04:34:58.933Z,2.32
2018-11-23T04:35:58.912Z,2.36
2018-11-23T04:36:58.884Z,2.25
2018-11-23T04:37:58.856Z,2.28
2018-11-23T04:38:58.828Z,2.28
2018-11-23T04:39:58.797Z,2.23
2018-11-23T04:40:58.827Z,2.21
2018-11-23T04:41:58.749Z,2.12
2018-11-23T04:42:58.717Z,2.14
2018-11-23T04:43:58.689Z,2.08
2018-11-23T04:44:58.659Z,2.15
2018-11-23T04:45:58.632Z,2.07
2018-11-23T04:46:58.605Z,2.04
2018-11-23T04:47:58.577Z,1.97
2018-11-23T04:48:58.551Z,2.00
2018-11-23T04:49:58.525Z,1.97
2018-11-23T04:50:58.497Z,1.93
2018-11-23T04:51:58.469Z,1.86
2018-11-23T04:52:58.441Z,1.85
2018-11-23T04:53:58.421Z,1.92
2018-11-23T04:54:58.440Z,1.92
2018-11-23T04:55:58.362Z,1.78
2018-11-23T04:56:58.332Z,1.81
2018-11-23T04:57:58.314Z,1.84
2018-11-23T04:58:58.278Z,1.92
2018-11-23T04:59:58.252Z,1.84
2018-11-23T05:00:58.237Z,1.79
2018-11-23T05:01:58.198Z,1.92
2018-11-23T05:02:58.169Z,1.92
2018-11-23T05:03:58.144Z,1.93
2018-11-23T05:04:58.113Z,1.95
2018-11-23T05:05:58.083Z,1.86
2018-11-23T05:06:58.058Z,1.86
2018-11-23T05:07:58.031Z,1.93
2018-11-23T05:08:58.004Z,1.93
2018-11-23T05:09:57.974Z,1.85
2018-11-23T05:10:57.950Z,1.86
2018-11-23T05:11:57.920Z,1.97
2018-11-23T05:12:57.895Z,1.81
2018-11-23T05:13:57.864Z,1.82
2018-11-23T05:14:57.837Z,1.85
2018-11-23T05:15:57.809Z,1.81
2018-11-23T05:16:57.782Z,1.82
2018-11-23T05:17:57.757Z,1.84
2018-11-23T05:18:57.728Z,1.86
2018-11-23T05:19:57.700Z,1.89
2018-11-23T05:20:57.671Z,1.82
2018-11-23T05:21:57.645Z,1.78
2018-11-23T05:22:57.617Z,1.78
2018-11-23T05:23:57.596Z,1.79
2018-11-23T05:24:57.561Z,1.70
2018-11-23T05:25:57.533Z,1.82
2018-11-23T05:26:57.508Z,1.74
2018-11-23T05:27:57.480Z,1.78
2018-11-23T05:28:57.451Z,1.79
2018-11-23T05:29:57.434Z,1.84
2018-11-23T05:30:57.397Z,1.75
2018-11-23T05:31:57.373Z,1.86
2018-11-23T05:32:57.343Z,1.89
2018-11-23T05:33:57.314Z,1.81
2018-11-23T05:34:57.286Z,1.86
2018-11-23T05:35:57.260Z,1.82
2018-11-23T05:36:57.231Z,1.86
2018-11-23T05:37:57.202Z,1.86
2018-11-23T05:38:57.177Z,1.82
2018-11-23T05:39:57.150Z,1.85
2018-11-23T05:40:57.124Z,1.86
2018-11-23T05:41:57.096Z,1.85
2018-11-23T05:43:04.127Z,1.86
2018-11-23T05:43:57.039Z,1.84
2018-11-23T05:44:57.010Z,1.93
2018-11-23T05:45:56.983Z,1.93
2018-11-23T05:46:56.956Z,1.93
2018-11-23T05:47:56.928Z,1.97
2018-11-23T05:48:56.899Z,1.92
2018-11-23T05:49:56.877Z,1.93
2018-11-23T05:50:56.845Z,1.88
2018-11-23T05:51:56.818Z,1.84
2018-11-23T05:52:56.791Z,1.84
2018-11-23T05:53:56.762Z,1.85
2018-11-23T05:54:56.736Z,1.85
2018-11-23T05:55:56.706Z,1.79
2018-11-23T05:56:56.678Z,1.84
2018-11-23T05:57:56.650Z,1.78
2018-11-23T05:58:56.724Z,1.85
2018-11-23T05:59:56.598Z,1.78
2018-11-23T06:00:56.575Z,1.79
2018-11-23T06:01:56.541Z,1.74
2018-11-23T06:02:56.512Z,1.79
2018-11-23T06:03:56.489Z,1.79
2018-11-23T06:04:56.507Z,1.84
2018-11-23T06:05:56.428Z,1.76
2018-11-23T06:06:56.404Z,1.82
2018-11-23T06:07:56.375Z,1.79
2018-11-23T06:08:56.349Z,1.86
2018-11-23T06:09:56.318Z,1.82
2018-11-23T06:10:56.291Z,1.85
2018-11-23T06:11:56.271Z,1.81
2018-11-23T06:12:56.235Z,1.81
2018-11-23T06:13:56.207Z,1.71
2018-11-23T06:14:56.191Z,1.68
2018-11-23T06:15:56.161Z,1.78
2018-11-23T06:16:56.126Z,1.70
2018-11-23T06:17:56.096Z,1.76
2018-11-23T06:18:56.074Z,1.81
2018-11-23T06:19:56.042Z,1.84
2018-11-23T06:20:56.026Z,1.71
2018-11-23T06:21:55.988Z,1.82
2018-11-23T06:22:55.968Z,1.78
2018-11-23T06:23:55.932Z,1.78
2018-11-23T06:24:55.909Z,1.82
2018-11-23T06:25:55.875Z,1.84
2018-11-23T06:26:55.849Z,1.85
2018-11-23T06:27:55.821Z,1.81
2018-11-23T06:28:55.808Z,1.81
2018-11-23T06:29:55.765Z,1.71
2018-11-23T06:30:55.737Z,1.76
2018-11-23T06:31:55.709Z,1.79
2018-11-23T06:32:55.681Z,1.86
2018-11-23T06:33:55.654Z,1.81
2018-11-23T06:34:55.627Z,1.76
2018-11-23T06:35:55.604Z,1.88
2018-11-23T06:36:55.572Z,1.81
2018-11-23T06:37:55.560Z,1.79
2018-11-23T06:38:55.519Z,1.86
2018-11-23T06:39:55.498Z,1.86
2018-11-23T06:40:55.467Z,1.84
2018-11-23T06:41:55.428Z,1.82
2018-11-23T06:42:55.411Z,1.86
2018-11-23T06:43:55.375Z,1.81
2018-11-23T06:44:55.347Z,1.84
2018-11-23T06:45:55.321Z,1.85
2018-11-23T06:46:55.297Z,1.71
2018-11-23T06:47:55.262Z,1.76
2018-11-23T06:48:55.247Z,1.76
2018-11-23T06:49:55.207Z,1.71
2018-11-23T06:50:55.184Z,1.71
2018-11-23T06:51:55.162Z,1.81
2018-11-23T06:52:55.126Z,1.78
2018-11-23T06:53:55.100Z,1.79
2018-11-23T06:54:55.069Z,1.71
2018-11-23T06:55:55.045Z,1.70
2018-11-23T06:56:55.015Z,1.71
2018-11-23T06:57:54.985Z,1.67
2018-11-23T06:58:54.971Z,1.74
2018-11-23T06:59:54.935Z,1.79
2018-11-23T07:00:54.907Z,1.71
2018-11-23T07:01:54.877Z,1.71
2018-11-23T07:02:59.098Z,1.75
2018-11-23T07:03:54.823Z,1.66
2018-11-23T07:04:54.801Z,1.66
2018-11-23T07:05:54.763Z,1.67
2018-11-23T07:06:54.740Z,1.61
2018-11-23T07:07:54.725Z,1.57
2018-11-23T07:08:54.681Z,1.66
2018-11-23T07:09:54.655Z,1.61
2018-11-23T07:10:54.626Z,1.70
2018-11-23T07:11:54.597Z,1.68
2018-11-23T07:12:54.569Z,1.70
2018-11-23T07:13:54.542Z,1.75
2018-11-23T07:14:54.513Z,1.79
2018-11-23T07:15:54.485Z,1.75
2018-11-23T07:16:54.463Z,1.79
2018-11-23T07:17:54.434Z,1.74
2018-11-23T07:18:54.412Z,1.81
2018-11-23T07:19:54.384Z,1.71
2018-11-23T07:20:54.363Z,1.85
2018-11-23T07:21:54.317Z,1.78
2018-11-23T07:22:54.301Z,1.81
2018-11-23T07:23:54.265Z,1.78
2018-11-23T07:24:54.235Z,1.84
2018-11-23T07:25:54.206Z,1.82
2018-11-23T07:26:54.185Z,1.93
2018-11-23T07:27:54.151Z,1.98
2018-11-23T07:28:54.122Z,2.00
2018-11-23T07:29:54.095Z,1.92
2018-11-23T07:30:54.097Z,1.92
2018-11-23T07:31:54.040Z,1.97
2018-11-23T07:32:54.014Z,1.98
2018-11-23T07:33:53.984Z,1.89
2018-11-23T07:34:53.958Z,1.86
2018-11-23T07:35:53.936Z,1.95
2018-11-23T07:36:53.903Z,1.86
2018-11-23T07:37:53.879Z,1.98
2018-11-23T07:38:53.845Z,1.89
2018-11-23T07:39:53.817Z,1.97
2018-11-23T07:40:53.791Z,1.98
2018-11-23T07:41:53.761Z,2.01
2018-11-23T07:42:53.734Z,2.01
2018-11-23T07:43:53.708Z,2.03
2018-11-23T07:44:53.687Z,1.95
2018-11-23T07:45:53.656Z,2.04
2018-11-23T07:46:53.623Z,2.05
2018-11-23T07:47:53.600Z,2.03
2018-11-23T07:48:53.576Z,2.03
2018-11-23T07:49:53.551Z,2.07
2018-11-23T07:50:53.516Z,2.07
2018-11-23T07:51:53.496Z,2.12
2018-11-23T07:52:53.464Z,2.10
2018-11-23T07:53:53.486Z,2.12
2018-11-23T07:54:53.411Z,2.12
2018-11-23T07:55:53.378Z,2.16
2018-11-23T07:56:53.347Z,2.19
2018-11-23T07:57:53.324Z,2.23
2018-11-23T07:58:53.295Z,2.37
2018-11-23T07:59:53.266Z,2.34
2018-11-23T08:00:53.241Z,2.40
2018-11-23T08:01:53.210Z,2.47
2018-11-23T08:02:53.191Z,2.51
2018-11-23T08:03:53.155Z,2.54
2018-11-23T08:04:53.290Z,2.54
2018-11-23T08:05:53.099Z,2.47
2018-11-23T08:06:53.079Z,2.51
2018-11-23T08:07:53.055Z,2.44
2018-11-23T08:08:53.019Z,2.57
2018-11-23T08:09:52.992Z,2.64
2018-11-23T08:10:52.966Z,2.57
2018-11-23T08:11:52.937Z,2.59
2018-11-23T08:12:52.916Z,2.64
2018-11-23T08:13:52.882Z,2.68
2018-11-23T08:14:52.854Z,2.69
2018-11-23T08:15:52.826Z,2.59
2018-11-23T08:16:52.798Z,2.58
2018-11-23T08:17:52.772Z,2.62
2018-11-23T08:18:52.752Z,2.52
2018-11-23T08:19:52.717Z,2.64
2018-11-23T08:20:52.710Z,2.57
2018-11-23T08:21:52.676Z,2.69
2018-11-23T08:22:52.645Z,2.64
2018-11-23T08:23:52.624Z,2.62
2018-11-23T08:24:52.591Z,2.57
2018-11-23T08:25:52.562Z,2.72
2018-11-23T08:26:52.535Z,2.70
2018-11-23T08:27:52.501Z,2.68
2018-11-23T08:28:52.473Z,2.85
2018-11-23T08:29:52.445Z,2.75
2018-11-23T08:30:52.417Z,2.73
2018-11-23T08:31:52.392Z,2.88
2018-11-23T08:32:52.373Z,2.85
2018-11-23T08:33:52.348Z,2.87
2018-11-23T08:34:52.330Z,2.82
2018-11-23T08:35:52.303Z,2.76
2018-11-23T08:36:52.257Z,2.87
2018-11-23T08:37:52.239Z,2.87
2018-11-23T08:38:52.203Z,2.93
2018-11-23T08:39:52.175Z,2.95
2018-11-23T08:40:52.162Z,2.93
2018-11-23T08:41:52.120Z,3.01
2018-11-23T08:42:52.097Z,2.97
2018-11-23T08:43:52.071Z,2.93
2018-11-23T08:44:52.048Z,2.97
2018-11-23T08:45:52.013Z,2.95
2018-11-23T08:46:51.986Z,2.82
2018-11-23T08:47:51.960Z,2.77
2018-11-23T08:48:51.930Z,2.77
2018-11-23T08:49:51.905Z,2.83
2018-11-23T08:50:51.877Z,2.82
2018-11-23T08:51:51.850Z,2.85
2018-11-23T08:52:51.823Z,2.80
2018-11-23T08:53:51.809Z,2.75
2018-11-23T08:54:51.774Z,2.83
2018-11-23T08:55:51.743Z,2.87
2018-11-23T08:56:51.725Z,2.97
2018-11-23T08:57:51.688Z,2.98
2018-11-23T08:58:51.666Z,2.95
2018-11-23T08:59:51.635Z,3.11
2018-11-23T09:00:51.619Z,3.15
2018-11-23T09:01:51.581Z,3.21
2018-11-23T09:02:51.553Z,3.22
2018-11-23T09:03:51.526Z,3.19
2018-11-23T09:04:51.503Z,3.29
2018-11-23T09:05:51.473Z,3.30
2018-11-23T09:06:51.445Z,3.27
2018-11-23T09:07:51.428Z,3.34
2018-11-23T09:08:51.482Z,3.40
2018-11-23T09:09:51.368Z,3.41
2018-11-23T09:10:51.341Z,3.43
2018-11-23T09:11:51.312Z,3.37
2018-11-23T09:12:51.296Z,3.43
2018-11-23T09:13:51.265Z,3.43
2018-11-23T09:14:51.233Z,3.40
2018-11-23T09:15:51.214Z,3.48
2018-11-23T09:16:51.192Z,3.55
2018-11-23T09:17:51.153Z,3.64
2018-11-23T09:18:51.132Z,3.52
2018-11-23T09:19:51.098Z,3.58
2018-11-23T09:20:51.079Z,3.59
2018-11-23T09:21:51.056Z,3.59
2018-11-23T09:22:51.047Z,3.78
2018-11-23T09:23:50.990Z,3.67
2018-11-23T09:24:50.965Z,3.84
2018-11-23T09:25:50.940Z,3.89
2018-11-23T09:26:50.912Z,3.94
2018-11-23T09:27:51.218Z,3.85
2018-11-23T09:28:50.871Z,3.89
2018-11-23T09:29:50.832Z,3.94
2018-11-23T09:30:50.817Z,3.99
2018-11-23T09:31:50.791Z,4.03
2018-11-23T09:32:50.759Z,4.09
2018-11-23T09:33:50.725Z,4.07
2018-11-23T09:34:50.700Z,4.13
2018-11-23T09:35:50.672Z,4.13
2018-11-23T09:36:50.645Z,4.13
2018-11-23T09:37:50.620Z,4.22
2018-11-23T09:38:50.593Z,4.14
2018-11-23T09:39:50.568Z,4.20
2018-11-23T09:40:50.549Z,4.27
2018-11-23T09:41:50.514Z,4.28
2018-11-23T09:42:50.487Z,4.36
2018-11-23T09:43:50.462Z,4.45
2018-11-23T09:44:50.448Z,4.38
2018-11-23T09:45:50.433Z,4.49
2018-11-23T09:46:50.387Z,4.56
2018-11-23T09:47:50.361Z,4.52
2018-11-23T09:48:50.329Z,4.61
2018-11-23T09:49:50.303Z,4.57
2018-11-23T09:50:50.279Z,4.68
2018-11-23T09:51:50.252Z,4.64
2018-11-23T09:52:50.236Z,4.84
2018-11-23T09:53:50.210Z,5.25
2018-11-23T09:54:50.172Z,5.81
2018-11-23T09:55:50.147Z,6.50
2018-11-23T09:56:50.170Z,6.90
2018-11-23T09:57:50.098Z,7.39
2018-11-23T09:58:50.070Z,7.91
2018-11-23T09:59:50.059Z,8.20
2018-11-23T10:00:50.025Z,8.42
2018-11-23T10:01:49.993Z,7.90
2018-11-23T10:02:49.976Z,7.98
2018-11-23T10:03:49.944Z,8.23
2018-11-23T10:04:50.019Z,8.49
2018-11-23T10:05:49.935Z,8.63
2018-11-23T10:06:49.874Z,8.14
2018-11-23T10:07:49.848Z,8.38
2018-11-23T10:08:49.827Z,8.31
2018-11-23T10:09:49.807Z,8.49
2018-11-23T10:10:49.774Z,8.44
2018-11-23T10:11:49.758Z,8.87
2018-11-23T10:12:49.723Z,8.71
2018-11-23T10:13:49.706Z,8.75
2018-11-23T10:14:49.691Z,8.61
2018-11-23T10:15:49.654Z,8.78
2018-11-23T10:16:49.637Z,8.49
2018-11-23T10:17:49.619Z,8.46
2018-11-23T10:18:49.588Z,8.64
2018-11-23T10:19:49.559Z,8.79
2018-11-23T10:20:49.544Z,9.02
2018-11-23T10:21:49.520Z,9.18
2018-11-23T10:22:49.489Z,9.37
2018-11-23T10:23:49.482Z,9.91
2018-11-23T10:25:49.431Z,10.25
2018-11-23T10:26:49.423Z,10.45
2018-11-23T10:27:49.373Z,10.36
2018-11-23T10:28:49.348Z,10.48
2018-11-23T10:29:54.994Z,10.06
2018-11-23T10:30:49.306Z,10.31
2018-11-23T10:31:49.281Z,10.36
2018-11-23T10:32:49.262Z,10.49
2018-11-23T10:33:49.236Z,10.82
2018-11-23T10:34:49.212Z,11.13
2018-11-23T10:35:49.239Z,11.31
2018-11-23T10:36:49.166Z,11.31
2018-11-23T10:37:49.144Z,11.43
2018-11-23T10:38:49.120Z,11.60
2018-11-23T10:39:49.103Z,11.44
2018-11-23T10:40:49.074Z,11.37
2018-11-23T10:41:49.052Z,11.20
2018-11-23T10:42:49.031Z,11.05
2018-11-23T10:43:49.007Z,10.41
2018-11-23T10:44:48.984Z,10.62
2018-11-23T10:45:48.973Z,10.83
2018-11-23T10:46:48.939Z,11.16
2018-11-23T10:47:48.917Z,10.58
2018-11-23T10:48:48.924Z,10.48
2018-11-23T10:49:48.872Z,10.89
2018-11-23T10:50:48.849Z,10.89
2018-11-23T10:51:48.827Z,10.75
2018-11-23T10:52:48.811Z,10.92
2018-11-23T10:53:48.782Z,10.49
2018-11-23T10:54:48.766Z,9.81
2018-11-23T10:55:48.735Z,9.63
2018-11-23T10:56:48.732Z,10.10
2018-11-23T10:57:48.691Z,10.21
2018-11-23T10:58:48.673Z,10.20
2018-11-23T10:59:48.652Z,10.36
2018-11-23T11:00:48.648Z,10.69
2018-11-23T11:01:48.599Z,10.67
2018-11-23T11:02:48.576Z,10.33
2018-11-23T11:03:48.554Z,10.53
2018-11-23T11:04:48.537Z,10.90
2018-11-23T11:05:48.509Z,10.75
2018-11-23T11:06:48.485Z,9.94
2018-11-23T11:07:48.466Z,10.41
2018-11-23T11:08:48.439Z,10.86
2018-11-23T11:09:48.417Z,11.34
2018-11-23T11:10:48.448Z,11.68
2018-11-23T11:11:48.529Z,11.89
2018-11-23T11:12:48.351Z,12.17
2018-11-23T11:13:48.332Z,12.36
2018-11-23T11:14:48.302Z,12.07
2018-11-23T11:15:48.284Z,11.52
2018-11-23T11:16:48.263Z,10.71
2018-11-23T11:17:48.241Z,10.43
2018-11-23T11:18:48.218Z,10.17
2018-11-23T11:19:48.195Z,9.90
2018-11-23T11:20:48.170Z,10.00
2018-11-23T11:21:48.150Z,10.21
2018-11-23T11:22:48.120Z,10.36
2018-11-23T11:23:48.096Z,10.43
2018-11-23T11:24:48.074Z,10.58
2018-11-23T11:25:48.049Z,10.75
2018-11-23T11:26:48.033Z,10.89
2018-11-23T11:27:48.045Z,10.75
2018-11-23T11:28:47.979Z,10.67
2018-11-23T11:29:47.957Z,10.72
2018-11-23T11:30:47.934Z,10.61
2018-11-23T11:31:47.918Z,10.86
2018-11-23T11:32:47.893Z,10.84
2018-11-23T11:33:48.064Z,10.87
2018-11-23T11:34:47.847Z,11.08
2018-11-23T11:35:47.829Z,9.88
2018-11-23T11:36:47.851Z,9.99
2018-11-23T11:37:47.784Z,10.12
2018-11-23T11:38:47.752Z,9.59
2018-11-23T11:39:47.743Z,9.73
2018-11-23T11:40:47.704Z,9.73
2018-11-23T11:41:47.694Z,9.84
2018-11-23T11:42:47.657Z,9.81
2018-11-23T11:43:47.635Z,9.73
2018-11-23T11:44:47.610Z,10.33
2018-11-23T11:45:47.597Z,10.80
2018-11-23T11:46:47.565Z,11.31
2018-11-23T11:47:47.551Z,11.49
2018-11-23T11:48:47.517Z,11.74
2018-11-23T11:49:47.496Z,11.71
2018-11-23T11:50:47.484Z,11.41
2018-11-23T11:51:47.449Z,10.97
2018-11-23T11:52:47.424Z,10.67
2018-11-23T11:53:47.403Z,10.48
2018-11-23T11:54:47.380Z,10.57
2018-11-23T11:55:47.358Z,10.71
2018-11-23T11:56:47.338Z,10.46
2018-11-23T11:57:47.311Z,10.86
2018-11-23T11:58:47.286Z,11.02
2018-11-23T11:59:47.263Z,10.82
2018-11-23T12:00:47.238Z,10.98
2018-11-23T12:01:47.223Z,10.79
2018-11-23T12:02:47.195Z,10.59
2018-11-23T12:03:47.170Z,10.82
2018-11-23T12:04:47.146Z,11.04
2018-11-23T12:05:47.128Z,11.05
2018-11-23T12:06:47.114Z,10.86
2018-11-23T12:07:47.079Z,10.36
2018-11-23T12:08:47.052Z,10.64
2018-11-23T12:09:47.031Z,10.39
2018-11-23T12:10:47.007Z,10.67
2018-11-23T12:11:46.985Z,10.48
2018-11-23T12:12:46.965Z,10.67
2018-11-23T12:13:46.941Z,10.72
2018-11-23T12:14:46.915Z,10.69
2018-11-23T12:15:46.892Z,10.92
2018-11-23T12:16:46.867Z,11.10
2018-11-23T12:17:46.843Z,11.38
2018-11-23T12:18:46.829Z,11.53
2018-11-23T12:19:46.798Z,11.56
2018-11-23T12:20:46.781Z,11.60
2018-11-23T12:21:46.750Z,11.56
2018-11-23T12:22:46.727Z,11.59
2018-11-23T12:23:46.711Z,11.52
2018-11-23T12:24:46.689Z,11.13
2018-11-23T12:25:46.663Z,10.48
2018-11-23T12:26:46.642Z,10.33
2018-11-23T12:27:46.611Z,9.77
2018-11-23T12:28:46.605Z,9.15
2018-11-23T12:29:46.565Z,9.13
2018-11-23T12:30:46.546Z,8.90
2018-11-23T12:31:46.518Z,8.87
2018-11-23T12:32:46.496Z,8.81
2018-11-23T12:33:46.491Z,8.93
2018-11-23T12:34:46.450Z,8.93
2018-11-23T12:35:46.433Z,8.96
2018-11-23T12:36:46.404Z,8.96
2018-11-23T12:37:46.378Z,8.96
2018-11-23T12:38:46.360Z,8.86
2018-11-23T12:39:46.341Z,8.74
2018-11-23T12:40:46.316Z,8.74
2018-11-23T12:41:46.285Z,8.71
2018-11-23T12:42:46.363Z,8.81
2018-11-23T12:43:46.251Z,8.87
2018-11-23T12:44:46.231Z,8.89
2018-11-23T12:45:46.198Z,8.87
2018-11-23T12:46:46.171Z,9.02
2018-11-23T12:47:46.148Z,9.02
2018-11-23T12:48:46.150Z,8.57
2018-11-23T12:49:46.116Z,8.42
2018-11-23T12:50:46.084Z,8.38
2018-11-23T12:51:46.055Z,8.31
2018-11-23T12:52:46.032Z,8.18
2018-11-23T12:53:46.014Z,8.23
2018-11-23T12:54:45.985Z,8.20
2018-11-23T12:55:45.961Z,8.36
2018-11-23T12:56:45.936Z,8.32
2018-11-23T12:57:45.915Z,8.49
2018-11-23T12:58:45.891Z,8.49
2018-11-23T12:59:45.872Z,8.56
2018-11-23T13:00:45.853Z,8.56
2018-11-23T13:01:45.821Z,8.50
2018-11-23T13:02:45.806Z,8.45
2018-11-23T13:03:45.776Z,8.63
2018-11-23T13:04:45.751Z,8.57
2018-11-23T13:05:45.728Z,8.52
2018-11-23T13:06:45.701Z,8.60
2018-11-23T13:07:45.732Z,8.66
2018-11-23T13:08:45.656Z,8.71
2018-11-23T13:09:45.635Z,8.68
2018-11-23T13:10:45.618Z,8.63
2018-11-23T13:11:45.593Z,8.66
2018-11-23T13:12:50.656Z,8.69
2018-11-23T13:13:45.541Z,8.75
2018-11-23T13:14:45.520Z,8.59